sensor_id;sensor_type;location;lat;lon;timestamp;temperature;humidity
2543;DHT22;1116;51.502;7.414;2023-05-10T00:02:13;14.50;99.90
2543;DHT22;1116;51.502;7.414;2023-05-10T00:04:44;14.50;99.90
2543;DHT22;1116;51.502;7.414;2023-05-10T00:07:15;14.90;99.90
2543;DHT22;1116;51.502;7.414;2023-05-10T00:09:46;14.50;99.90
2543;DHT22;1116;51.502;7.414;2023-05-10T00:12:17;14.50;99.90
2543;DHT22;1116;51.502;7.414;2023-05-10T00:14:51;14.50;99.90
2543;DHT22;1116;51.502;7.414;2023-05-10T00:17:22;14.40;99.90
2543;DHT22;1116;51.502;7.414;2023-05-10T00:19:53;14.40;99.90
2543;DHT22;1116;51.502;7.414;2023-05-10T00:22:25;14.40;99.90
2543;DHT22;1116;51.502;7.414;2023-05-10T00:24:56;14.40;99.90
2543;DHT22;1116;51.502;7.414;2023-05-10T00:27:27;14.40;99.90
2543;DHT22;1116;51.502;7.414;2023-05-10T00:30:00;14.50;99.90
2543;DHT22;1116;51.502;7.414;2023-05-10T00:32:31;14.50;99.90
2543;DHT22;1116;51.502;7.414;2023-05-10T00:35:03;14.50;99.90
2543;DHT22;1116;51.502;7.414;2023-05-10T00:37:34;14.50;99.90
2543;DHT22;1116;51.502;7.414;2023-05-10T00:40:06;14.50;99.90
2543;DHT22;1116;51.502;7.414;2023-05-10T00:42:38;14.50;99.90
2543;DHT22;1116;51.502;7.414;2023-05-10T00:45:11;14.50;99.90
2543;DHT22;1116;51.502;7.414;2023-05-10T00:47:42;14.50;99.90
2543;DHT22;1116;51.502;7.414;2023-05-10T00:50:14;14.50;99.90
2543;DHT22;1116;51.502;7.414;2023-05-10T00:52:46;14.40;99.90
2543;DHT22;1116;51.502;7.414;2023-05-10T00:55:18;14.50;99.90
2543;DHT22;1116;51.502;7.414;2023-05-10T00:57:49;14.50;99.90
2543;DHT22;1116;51.502;7.414;2023-05-10T01:00:23;14.50;99.90
2543;DHT22;1116;51.502;7.414;2023-05-10T01:02:54;14.50;99.90
2543;DHT22;1116;51.502;7.414;2023-05-10T01:05:25;14.50;99.90
2543;DHT22;1116;51.502;7.414;2023-05-10T01:07:56;14.40;99.90
2543;DHT22;1116;51.502;7.414;2023-05-10T01:10:27;14.50;99.90
2543;DHT22;1116;51.502;7.414;2023-05-10T01:12:59;14.40;99.90
2543;DHT22;1116;51.502;7.414;2023-05-10T01:15:34;14.50;99.90
2543;DHT22;1116;51.502;7.414;2023-05-10T01:18:05;14.50;99.90
2543;DHT22;1116;51.502;7.414;2023-05-10T01:20:41;14.50;99.90
2543;DHT22;1116;51.502;7.414;2023-05-10T01:23:36;14.50;99.90
2543;DHT22;1116;51.502;7.414;2023-05-10T01:26:44;14.50;99.90
2543;DHT22;1116;51.502;7.414;2023-05-10T01:29:47;14.50;99.90
2543;DHT22;1116;51.502;7.414;2023-05-10T01:32:47;14.50;99.90
2543;DHT22;1116;51.502;7.414;2023-05-10T01:35:26;14.50;99.90
2543;DHT22;1116;51.502;7.414;2023-05-10T01:38:11;14.50;99.90
2543;DHT22;1116;51.502;7.414;2023-05-10T01:40:51;14.50;99.90
2543;DHT22;1116;51.502;7.414;2023-05-10T01:43:28;14.50;99.90
2543;DHT22;1116;51.502;7.414;2023-05-10T01:46:02;14.40;99.90
2543;DHT22;1116;51.502;7.414;2023-05-10T01:48:47;14.40;99.90
2543;DHT22;1116;51.502;7.414;2023-05-10T01:51:23;14.30;99.90
2543;DHT22;1116;51.502;7.414;2023-05-10T01:54:00;14.30;99.90
2543;DHT22;1116;51.502;7.414;2023-05-10T01:56:33;14.30;99.90
2543;DHT22;1116;51.502;7.414;2023-05-10T01:59:09;14.30;99.90
2543;DHT22;1116;51.502;7.414;2023-05-10T02:01:43;14.30;99.90
2543;DHT22;1116;51.502;7.414;2023-05-10T02:04:17;14.30;99.90
2543;DHT22;1116;51.502;7.414;2023-05-10T02:06:50;14.20;99.90
2543;DHT22;1116;51.502;7.414;2023-05-10T02:09:23;14.20;99.90
2543;DHT22;1116;51.502;7.414;2023-05-10T02:11:55;14.10;99.90
2543;DHT22;1116;51.502;7.414;2023-05-10T02:14:27;14.40;99.90
2543;DHT22;1116;51.502;7.414;2023-05-10T02:16:59;14.20;99.90
2543;DHT22;1116;51.502;7.414;2023-05-10T02:19:38;14.20;99.90
2543;DHT22;1116;51.502;7.414;2023-05-10T02:22:09;14.10;99.90
2543;DHT22;1116;51.502;7.414;2023-05-10T02:24:41;14.10;99.90
2543;DHT22;1116;51.502;7.414;2023-05-10T02:27:14;14.10;99.90
2543;DHT22;1116;51.502;7.414;2023-05-10T02:29:46;14.50;99.90
2543;DHT22;1116;51.502;7.414;2023-05-10T02:32:18;14.10;99.90
2543;DHT22;1116;51.502;7.414;2023-05-10T02:34:52;14.10;99.90
2543;DHT22;1116;51.502;7.414;2023-05-10T02:37:24;14.00;99.90
2543;DHT22;1116;51.502;7.414;2023-05-10T02:39:56;14.00;99.90
2543;DHT22;1116;51.502;7.414;2023-05-10T02:42:33;14.00;99.90
2543;DHT22;1116;51.502;7.414;2023-05-10T02:45:10;14.00;99.90
2543;DHT22;1116;51.502;7.414;2023-05-10T02:47:42;14.00;99.90
2543;DHT22;1116;51.502;7.414;2023-05-10T02:50:16;13.90;99.90
2543;DHT22;1116;51.502;7.414;2023-05-10T02:52:50;14.00;99.90
2543;DHT22;1116;51.502;7.414;2023-05-10T02:55:26;14.00;99.90
2543;DHT22;1116;51.502;7.414;2023-05-10T02:58:01;13.90;99.90
2543;DHT22;1116;51.502;7.414;2023-05-10T03:00:32;13.90;99.90
2543;DHT22;1116;51.502;7.414;2023-05-10T03:03:03;13.90;99.90
2543;DHT22;1116;51.502;7.414;2023-05-10T03:05:37;13.80;99.90
2543;DHT22;1116;51.502;7.414;2023-05-10T03:08:08;13.80;99.90
2543;DHT22;1116;51.502;7.414;2023-05-10T03:10:46;13.80;99.90
2543;DHT22;1116;51.502;7.414;2023-05-10T03:13:29;13.90;99.90
2543;DHT22;1116;51.502;7.414;2023-05-10T03:16:08;13.90;99.90
2543;DHT22;1116;51.502;7.414;2023-05-10T03:18:43;13.90;99.90
2543;DHT22;1116;51.502;7.414;2023-05-10T03:21:18;13.90;99.90
2543;DHT22;1116;51.502;7.414;2023-05-10T03:23:57;13.90;99.90
2543;DHT22;1116;51.502;7.414;2023-05-10T03:26:30;14.00;99.90
2543;DHT22;1116;51.502;7.414;2023-05-10T03:29:01;14.00;99.90
2543;DHT22;1116;51.502;7.414;2023-05-10T03:31:33;14.20;99.90
2543;DHT22;1116;51.502;7.414;2023-05-10T03:34:04;14.00;99.90
2543;DHT22;1116;51.502;7.414;2023-05-10T03:36:37;14.00;99.90
2543;DHT22;1116;51.502;7.414;2023-05-10T03:39:08;14.00;99.90
2543;DHT22;1116;51.502;7.414;2023-05-10T03:41:39;14.00;99.90
2543;DHT22;1116;51.502;7.414;2023-05-10T03:44:10;14.00;99.90
2543;DHT22;1116;51.502;7.414;2023-05-10T03:46:41;14.00;99.90
2543;DHT22;1116;51.502;7.414;2023-05-10T03:49:12;14.00;99.90
2543;DHT22;1116;51.502;7.414;2023-05-10T03:51:46;14.10;99.90
2543;DHT22;1116;51.502;7.414;2023-05-10T03:54:17;14.40;99.90
2543;DHT22;1116;51.502;7.414;2023-05-10T03:56:48;14.00;99.90
2543;DHT22;1116;51.502;7.414;2023-05-10T03:59:19;14.00;99.90
2543;DHT22;1116;51.502;7.414;2023-05-10T04:01:50;14.00;99.90
2543;DHT22;1116;51.502;7.414;2023-05-10T04:04:21;14.00;99.90
2543;DHT22;1116;51.502;7.414;2023-05-10T04:06:55;14.00;99.90
2543;DHT22;1116;51.502;7.414;2023-05-10T04:09:26;14.00;99.90
2543;DHT22;1116;51.502;7.414;2023-05-10T04:11:58;14.00;99.90
2543;DHT22;1116;51.502;7.414;2023-05-10T04:14:30;14.00;99.90
2543;DHT22;1116;51.502;7.414;2023-05-10T04:17:01;14.00;99.90
2543;DHT22;1116;51.502;7.414;2023-05-10T04:19:33;14.00;99.90
2543;DHT22;1116;51.502;7.414;2023-05-10T04:22:06;14.00;99.90
2543;DHT22;1116;51.502;7.414;2023-05-10T04:24:37;14.00;99.90
2543;DHT22;1116;51.502;7.414;2023-05-10T04:27:08;14.00;99.90
2543;DHT22;1116;51.502;7.414;2023-05-10T04:29:39;14.00;99.90
2543;DHT22;1116;51.502;7.414;2023-05-10T04:32:10;14.00;99.90
2543;DHT22;1116;51.502;7.414;2023-05-10T04:34:41;14.00;99.90
2543;DHT22;1116;51.502;7.414;2023-05-10T04:37:15;14.50;99.90
2543;DHT22;1116;51.502;7.414;2023-05-10T04:39:46;14.00;99.90
2543;DHT22;1116;51.502;7.414;2023-05-10T04:42:18;14.00;99.90
2543;DHT22;1116;51.502;7.414;2023-05-10T04:44:49;14.00;99.90
2543;DHT22;1116;51.502;7.414;2023-05-10T04:47:20;14.00;99.90
2543;DHT22;1116;51.502;7.414;2023-05-10T04:49:51;13.90;99.90
2543;DHT22;1116;51.502;7.414;2023-05-10T04:52:25;14.00;99.90
2543;DHT22;1116;51.502;7.414;2023-05-10T04:54:56;14.00;99.90
2543;DHT22;1116;51.502;7.414;2023-05-10T04:57:27;13.90;99.90
2543;DHT22;1116;51.502;7.414;2023-05-10T04:59:58;13.80;99.90
2543;DHT22;1116;51.502;7.414;2023-05-10T05:02:30;13.80;99.90
2543;DHT22;1116;51.502;7.414;2023-05-10T05:05:01;14.10;99.90
2543;DHT22;1116;51.502;7.414;2023-05-10T05:07:35;13.80;99.90
2543;DHT22;1116;51.502;7.414;2023-05-10T05:10:07;13.80;99.90
2543;DHT22;1116;51.502;7.414;2023-05-10T05:12:39;13.90;99.90
2543;DHT22;1116;51.502;7.414;2023-05-10T05:15:10;14.00;99.90
2543;DHT22;1116;51.502;7.414;2023-05-10T05:17:43;14.00;99.90
2543;DHT22;1116;51.502;7.414;2023-05-10T05:20:14;14.00;99.90
2543;DHT22;1116;51.502;7.414;2023-05-10T05:22:49;14.00;99.90
2543;DHT22;1116;51.502;7.414;2023-05-10T05:25:20;14.00;99.90
2543;DHT22;1116;51.502;7.414;2023-05-10T05:27:51;13.90;99.90
2543;DHT22;1116;51.502;7.414;2023-05-10T05:30:22;13.90;99.90
2543;DHT22;1116;51.502;7.414;2023-05-10T05:32:53;14.00;99.90
2543;DHT22;1116;51.502;7.414;2023-05-10T05:35:25;14.00;99.90
2543;DHT22;1116;51.502;7.414;2023-05-10T05:37:58;14.10;99.90
2543;DHT22;1116;51.502;7.414;2023-05-10T05:40:29;14.10;99.90
2543;DHT22;1116;51.502;7.414;2023-05-10T05:43:00;14.10;99.90
2543;DHT22;1116;51.502;7.414;2023-05-10T05:45:31;14.40;99.90
2543;DHT22;1116;51.502;7.414;2023-05-10T05:48:03;14.10;99.90
2543;DHT22;1116;51.502;7.414;2023-05-10T05:50:34;14.20;99.90
2543;DHT22;1116;51.502;7.414;2023-05-10T05:53:08;14.20;99.90
2543;DHT22;1116;51.502;7.414;2023-05-10T05:55:39;14.30;99.90
2543;DHT22;1116;51.502;7.414;2023-05-10T05:58:10;14.30;99.90
2543;DHT22;1116;51.502;7.414;2023-05-10T06:00:41;14.30;99.90
2543;DHT22;1116;51.502;7.414;2023-05-10T06:03:12;14.30;99.90
2543;DHT22;1116;51.502;7.414;2023-05-10T06:05:44;14.30;99.90
2543;DHT22;1116;51.502;7.414;2023-05-10T06:08:17;14.30;99.90
2543;DHT22;1116;51.502;7.414;2023-05-10T06:10:48;14.40;99.90
2543;DHT22;1116;51.502;7.414;2023-05-10T06:13:21;14.40;99.90
2543;DHT22;1116;51.502;7.414;2023-05-10T06:15:52;14.40;99.90
2543;DHT22;1116;51.502;7.414;2023-05-10T06:18:23;14.40;99.90
2543;DHT22;1116;51.502;7.414;2023-05-10T06:20:54;14.50;99.90
2543;DHT22;1116;51.502;7.414;2023-05-10T06:23:27;14.50;99.90
2543;DHT22;1116;51.502;7.414;2023-05-10T06:25:58;14.60;99.90
2543;DHT22;1116;51.502;7.414;2023-05-10T06:28:29;14.60;99.90
2543;DHT22;1116;51.502;7.414;2023-05-10T06:31:01;14.70;99.90
2543;DHT22;1116;51.502;7.414;2023-05-10T06:33:32;14.80;99.90
2543;DHT22;1116;51.502;7.414;2023-05-10T06:36:03;14.80;99.90
2543;DHT22;1116;51.502;7.414;2023-05-10T06:38:37;14.80;99.90
2543;DHT22;1116;51.502;7.414;2023-05-10T06:41:08;14.90;99.90
2543;DHT22;1116;51.502;7.414;2023-05-10T06:43:39;14.90;99.90
2543;DHT22;1116;51.502;7.414;2023-05-10T06:46:11;14.90;99.90
2543;DHT22;1116;51.502;7.414;2023-05-10T06:48:42;14.90;99.90
2543;DHT22;1116;51.502;7.414;2023-05-10T06:51:13;14.80;99.90
2543;DHT22;1116;51.502;7.414;2023-05-10T06:53:50;14.90;99.90
2543;DHT22;1116;51.502;7.414;2023-05-10T06:56:21;14.90;99.90
2543;DHT22;1116;51.502;7.414;2023-05-10T06:58:54;14.90;99.90
2543;DHT22;1116;51.502;7.414;2023-05-10T07:01:25;15.00;99.90
2543;DHT22;1116;51.502;7.414;2023-05-10T07:03:59;15.00;99.90
2543;DHT22;1116;51.502;7.414;2023-05-10T07:06:41;15.00;99.90
2543;DHT22;1116;51.502;7.414;2023-05-10T07:09:19;15.00;99.90
2543;DHT22;1116;51.502;7.414;2023-05-10T07:11:55;15.20;99.90
2543;DHT22;1116;51.502;7.414;2023-05-10T07:14:29;15.40;99.90
2543;DHT22;1116;51.502;7.414;2023-05-10T07:17:11;16.10;99.90
2543;DHT22;1116;51.502;7.414;2023-05-10T07:19:51;16.70;99.90
2543;DHT22;1116;51.502;7.414;2023-05-10T07:22:22;17.00;99.90
2543;DHT22;1116;51.502;7.414;2023-05-10T07:25:02;17.30;99.90
2543;DHT22;1116;51.502;7.414;2023-05-10T07:27:47;17.20;99.90
2543;DHT22;1116;51.502;7.414;2023-05-10T07:30:21;17.30;99.90
2543;DHT22;1116;51.502;7.414;2023-05-10T07:40:31;17.10;99.90
2543;DHT22;1116;51.502;7.414;2023-05-10T07:43:03;17.10;99.90
2543;DHT22;1116;51.502;7.414;2023-05-10T07:45:40;17.00;99.90
2543;DHT22;1116;51.502;7.414;2023-05-10T07:48:32;17.20;99.90
2543;DHT22;1116;51.502;7.414;2023-05-10T07:51:44;17.30;99.90
2543;DHT22;1116;51.502;7.414;2023-05-10T07:55:10;17.00;99.90
2543;DHT22;1116;51.502;7.414;2023-05-10T07:58:12;16.90;99.90
2543;DHT22;1116;51.502;7.414;2023-05-10T08:00:55;16.80;99.90
2543;DHT22;1116;51.502;7.414;2023-05-10T08:03:26;16.80;99.90
2543;DHT22;1116;51.502;7.414;2023-05-10T08:06:00;16.80;99.90
2543;DHT22;1116;51.502;7.414;2023-05-10T08:08:35;16.60;99.90
2543;DHT22;1116;51.502;7.414;2023-05-10T08:11:10;16.60;99.90
2543;DHT22;1116;51.502;7.414;2023-05-10T08:13:54;16.80;99.90
2543;DHT22;1116;51.502;7.414;2023-05-10T08:16:25;16.80;99.90
2543;DHT22;1116;51.502;7.414;2023-05-10T08:19:30;16.80;99.90
2543;DHT22;1116;51.502;7.414;2023-05-10T08:22:47;16.70;99.90
2543;DHT22;1116;51.502;7.414;2023-05-10T08:25:26;17.40;99.90
2543;DHT22;1116;51.502;7.414;2023-05-10T08:28:08;17.20;99.90
2543;DHT22;1116;51.502;7.414;2023-05-10T08:30:42;17.10;99.90
2543;DHT22;1116;51.502;7.414;2023-05-10T08:33:13;17.10;99.90
2543;DHT22;1116;51.502;7.414;2023-05-10T08:35:46;17.00;99.90
2543;DHT22;1116;51.502;7.414;2023-05-10T08:38:30;16.90;99.90
2543;DHT22;1116;51.502;7.414;2023-05-10T08:45:39;16.90;99.90
2543;DHT22;1116;51.502;7.414;2023-05-10T08:48:23;16.90;99.90
2543;DHT22;1116;51.502;7.414;2023-05-10T08:50:58;16.80;99.90
2543;DHT22;1116;51.502;7.414;2023-05-10T08:53:32;16.80;99.90
2543;DHT22;1116;51.502;7.414;2023-05-10T08:56:04;16.70;99.90
2543;DHT22;1116;51.502;7.414;2023-05-10T08:58:36;16.60;99.90
2543;DHT22;1116;51.502;7.414;2023-05-10T09:01:07;16.50;99.90
2543;DHT22;1116;51.502;7.414;2023-05-10T09:03:42;16.60;99.90
2543;DHT22;1116;51.502;7.414;2023-05-10T09:06:13;16.50;99.90
2543;DHT22;1116;51.502;7.414;2023-05-10T09:08:45;16.40;99.90
2543;DHT22;1116;51.502;7.414;2023-05-10T09:11:16;16.40;99.90
2543;DHT22;1116;51.502;7.414;2023-05-10T09:13:48;16.30;99.90
2543;DHT22;1116;51.502;7.414;2023-05-10T09:16:21;16.30;99.90
2543;DHT22;1116;51.502;7.414;2023-05-10T09:18:58;16.40;99.90
2543;DHT22;1116;51.502;7.414;2023-05-10T09:21:29;16.50;99.90
2543;DHT22;1116;51.502;7.414;2023-05-10T09:24:03;16.60;99.90
2543;DHT22;1116;51.502;7.414;2023-05-10T09:26:43;16.80;99.90
2543;DHT22;1116;51.502;7.414;2023-05-10T09:29:16;16.90;99.90
2543;DHT22;1116;51.502;7.414;2023-05-10T09:31:48;17.00;99.90
2543;DHT22;1116;51.502;7.414;2023-05-10T09:34:31;17.30;99.90
2543;DHT22;1116;51.502;7.414;2023-05-10T09:37:04;16.90;99.90
2543;DHT22;1116;51.502;7.414;2023-05-10T09:39:37;16.90;99.90
2543;DHT22;1116;51.502;7.414;2023-05-10T09:42:10;17.30;99.90
2543;DHT22;1116;51.502;7.414;2023-05-10T09:44:41;17.10;99.90
2543;DHT22;1116;51.502;7.414;2023-05-10T09:47:17;17.30;99.90
2543;DHT22;1116;51.502;7.414;2023-05-10T09:49:54;17.50;99.90
2543;DHT22;1116;51.502;7.414;2023-05-10T09:52:30;17.50;99.90
2543;DHT22;1116;51.502;7.414;2023-05-10T09:55:01;17.60;93.60
2543;DHT22;1116;51.502;7.414;2023-05-10T09:57:33;17.60;93.20
2543;DHT22;1116;51.502;7.414;2023-05-10T10:00:07;17.60;92.30
2543;DHT22;1116;51.502;7.414;2023-05-10T10:02:40;17.70;73.10
2543;DHT22;1116;51.502;7.414;2023-05-10T10:05:14;17.70;64.90
2543;DHT22;1116;51.502;7.414;2023-05-10T10:07:46;17.70;66.10
2543;DHT22;1116;51.502;7.414;2023-05-10T10:10:21;17.60;73.20
2543;DHT22;1116;51.502;7.414;2023-05-10T10:12:55;17.70;69.50
2543;DHT22;1116;51.502;7.414;2023-05-10T10:15:26;17.60;65.00
2543;DHT22;1116;51.502;7.414;2023-05-10T10:17:57;17.50;67.60
2543;DHT22;1116;51.502;7.414;2023-05-10T10:20:31;17.60;61.80
2543;DHT22;1116;51.502;7.414;2023-05-10T10:23:02;17.50;53.80
2543;DHT22;1116;51.502;7.414;2023-05-10T10:25:33;17.40;57.00
2543;DHT22;1116;51.502;7.414;2023-05-10T10:28:11;17.50;59.60
2543;DHT22;1116;51.502;7.414;2023-05-10T10:30:48;17.60;55.90
2543;DHT22;1116;51.502;7.414;2023-05-10T10:33:40;17.60;51.50
2543;DHT22;1116;51.502;7.414;2023-05-10T10:36:20;17.50;48.00
2543;DHT22;1116;51.502;7.414;2023-05-10T10:38:58;17.40;46.80
2543;DHT22;1116;51.502;7.414;2023-05-10T10:41:33;17.50;48.90
2543;DHT22;1116;51.502;7.414;2023-05-10T10:44:26;17.50;54.60
2543;DHT22;1116;51.502;7.414;2023-05-10T10:47:07;17.70;49.00
2543;DHT22;1116;51.502;7.414;2023-05-10T10:49:45;17.70;44.30
2543;DHT22;1116;51.502;7.414;2023-05-10T10:52:27;17.80;45.80
2543;DHT22;1116;51.502;7.414;2023-05-10T10:55:05;17.80;47.30
2543;DHT22;1116;51.502;7.414;2023-05-10T10:57:45;17.70;47.40
2543;DHT22;1116;51.502;7.414;2023-05-10T11:00:24;17.80;51.30
2543;DHT22;1116;51.502;7.414;2023-05-10T11:02:59;17.80;53.60
2543;DHT22;1116;51.502;7.414;2023-05-10T11:05:40;17.70;52.70
2543;DHT22;1116;51.502;7.414;2023-05-10T11:08:16;17.80;54.30
2543;DHT22;1116;51.502;7.414;2023-05-10T11:10:53;17.80;45.60
2543;DHT22;1116;51.502;7.414;2023-05-10T11:13:28;17.70;44.60
2543;DHT22;1116;51.502;7.414;2023-05-10T11:16:13;17.60;47.50
2543;DHT22;1116;51.502;7.414;2023-05-10T11:18:59;17.60;38.50
2543;DHT22;1116;51.502;7.414;2023-05-10T11:21:31;17.50;38.40
2543;DHT22;1116;51.502;7.414;2023-05-10T11:24:13;17.50;38.50
2543;DHT22;1116;51.502;7.414;2023-05-10T11:26:45;17.70;38.40
2543;DHT22;1116;51.502;7.414;2023-05-10T11:29:16;17.60;34.60
2543;DHT22;1116;51.502;7.414;2023-05-10T11:31:48;17.60;32.30
2543;DHT22;1116;51.502;7.414;2023-05-10T11:34:26;17.70;40.30
2543;DHT22;1116;51.502;7.414;2023-05-10T11:36:58;17.70;38.60
2543;DHT22;1116;51.502;7.414;2023-05-10T11:39:32;17.60;32.60
2543;DHT22;1116;51.502;7.414;2023-05-10T11:42:04;17.60;34.90
2543;DHT22;1116;51.502;7.414;2023-05-10T11:44:40;17.70;38.60
2543;DHT22;1116;51.502;7.414;2023-05-10T11:47:13;17.60;32.90
2543;DHT22;1116;51.502;7.414;2023-05-10T11:49:44;17.60;39.50
2543;DHT22;1116;51.502;7.414;2023-05-10T11:52:15;17.60;38.80
2543;DHT22;1116;51.502;7.414;2023-05-10T11:54:50;17.80;36.20
2543;DHT22;1116;51.502;7.414;2023-05-10T11:57:26;17.90;34.10
2543;DHT22;1116;51.502;7.414;2023-05-10T11:59:59;17.90;37.00
2543;DHT22;1116;51.502;7.414;2023-05-10T12:02:31;17.80;35.00
2543;DHT22;1116;51.502;7.414;2023-05-10T12:05:04;17.80;34.70
2543;DHT22;1116;51.502;7.414;2023-05-10T12:07:35;17.80;35.40
2543;DHT22;1116;51.502;7.414;2023-05-10T12:10:10;18.10;35.10
2543;DHT22;1116;51.502;7.414;2023-05-10T12:12:44;18.20;38.10
2543;DHT22;1116;51.502;7.414;2023-05-10T12:15:18;18.30;37.20
2543;DHT22;1116;51.502;7.414;2023-05-10T12:17:50;18.50;30.40
2543;DHT22;1116;51.502;7.414;2023-05-10T12:20:23;18.50;33.00
2543;DHT22;1116;51.502;7.414;2023-05-10T12:22:56;18.50;31.70
2543;DHT22;1116;51.502;7.414;2023-05-10T12:25:33;18.30;28.90
2543;DHT22;1116;51.502;7.414;2023-05-10T12:28:06;18.20;30.60
2543;DHT22;1116;51.502;7.414;2023-05-10T12:30:38;18.20;32.70
2543;DHT22;1116;51.502;7.414;2023-05-10T12:33:10;18.10;30.00
2543;DHT22;1116;51.502;7.414;2023-05-10T12:35:47;18.00;32.10
2543;DHT22;1116;51.502;7.414;2023-05-10T12:38:30;18.10;31.00
2543;DHT22;1116;51.502;7.414;2023-05-10T12:41:06;18.00;28.30
2543;DHT22;1116;51.502;7.414;2023-05-10T12:43:38;18.00;28.60
2543;DHT22;1116;51.502;7.414;2023-05-10T12:46:14;18.10;33.30
2543;DHT22;1116;51.502;7.414;2023-05-10T12:48:45;18.30;33.00
2543;DHT22;1116;51.502;7.414;2023-05-10T12:51:35;18.30;32.60
2543;DHT22;1116;51.502;7.414;2023-05-10T12:54:06;18.30;30.30
2543;DHT22;1116;51.502;7.414;2023-05-10T12:56:40;18.30;31.20
2543;DHT22;1116;51.502;7.414;2023-05-10T12:59:11;18.20;30.00
2543;DHT22;1116;51.502;7.414;2023-05-10T13:01:42;18.30;29.50
2543;DHT22;1116;51.502;7.414;2023-05-10T13:04:13;18.50;28.90
2543;DHT22;1116;51.502;7.414;2023-05-10T13:06:44;18.50;26.80
2543;DHT22;1116;51.502;7.414;2023-05-10T13:09:15;18.60;24.30
2543;DHT22;1116;51.502;7.414;2023-05-10T13:11:49;18.40;24.70
2543;DHT22;1116;51.502;7.414;2023-05-10T13:14:21;18.30;23.30
2543;DHT22;1116;51.502;7.414;2023-05-10T13:16:52;18.20;26.50
2543;DHT22;1116;51.502;7.414;2023-05-10T13:19:26;18.10;25.20
2543;DHT22;1116;51.502;7.414;2023-05-10T13:21:57;18.20;24.50
2543;DHT22;1116;51.502;7.414;2023-05-10T13:24:28;18.20;24.10
2543;DHT22;1116;51.502;7.414;2023-05-10T13:27:03;18.30;25.70
2543;DHT22;1116;51.502;7.414;2023-05-10T13:29:34;18.20;26.70
2543;DHT22;1116;51.502;7.414;2023-05-10T13:32:05;18.10;23.20
2543;DHT22;1116;51.502;7.414;2023-05-10T13:34:36;18.10;27.30
2543;DHT22;1116;51.502;7.414;2023-05-10T13:37:07;18.10;25.30
2543;DHT22;1116;51.502;7.414;2023-05-10T13:39:38;18.10;24.40
2543;DHT22;1116;51.502;7.414;2023-05-10T13:42:21;17.90;26.00
2543;DHT22;1116;51.502;7.414;2023-05-10T13:45:04;17.80;24.10
2543;DHT22;1116;51.502;7.414;2023-05-10T13:47:35;17.90;26.90
2543;DHT22;1116;51.502;7.414;2023-05-10T13:50:07;18.00;28.50
2543;DHT22;1116;51.502;7.414;2023-05-10T13:52:40;18.10;28.60
2543;DHT22;1116;51.502;7.414;2023-05-10T13:55:12;18.20;26.80
2543;DHT22;1116;51.502;7.414;2023-05-10T13:57:46;18.30;24.00
2543;DHT22;1116;51.502;7.414;2023-05-10T14:00:17;18.20;24.80
2543;DHT22;1116;51.502;7.414;2023-05-10T14:02:48;18.30;27.30
2543;DHT22;1116;51.502;7.414;2023-05-10T14:05:20;18.40;21.20
2543;DHT22;1116;51.502;7.414;2023-05-10T14:07:53;18.30;18.90
2543;DHT22;1116;51.502;7.414;2023-05-10T14:10:25;18.40;22.30
2543;DHT22;1116;51.502;7.414;2023-05-10T14:13:00;18.50;22.60
2543;DHT22;1116;51.502;7.414;2023-05-10T14:15:31;18.70;20.50
2543;DHT22;1116;51.502;7.414;2023-05-10T14:18:02;18.80;20.50
2543;DHT22;1116;51.502;7.414;2023-05-10T14:20:33;18.90;18.30
2543;DHT22;1116;51.502;7.414;2023-05-10T14:23:04;18.90;14.40
2543;DHT22;1116;51.502;7.414;2023-05-10T14:25:39;19.00;12.90
2543;DHT22;1116;51.502;7.414;2023-05-10T14:28:13;19.10;12.50
2543;DHT22;1116;51.502;7.414;2023-05-10T14:30:46;19.20;17.30
2543;DHT22;1116;51.502;7.414;2023-05-10T14:33:17;19.20;11.80
2543;DHT22;1116;51.502;7.414;2023-05-10T14:35:48;19.40;15.40
2543;DHT22;1116;51.502;7.414;2023-05-10T14:38:20;19.50;15.40
2543;DHT22;1116;51.502;7.414;2023-05-10T14:40:51;19.50;15.40
2543;DHT22;1116;51.502;7.414;2023-05-10T14:43:25;19.60;12.70
2543;DHT22;1116;51.502;7.414;2023-05-10T14:45:56;19.60;12.80
2543;DHT22;1116;51.502;7.414;2023-05-10T14:48:26;19.60;12.60
2543;DHT22;1116;51.502;7.414;2023-05-10T14:50:57;19.50;10.90
2543;DHT22;1116;51.502;7.414;2023-05-10T14:53:28;19.40;11.90
2543;DHT22;1116;51.502;7.414;2023-05-10T14:56:00;19.40;11.90
2543;DHT22;1116;51.502;7.414;2023-05-10T14:58:34;19.30;10.20
2543;DHT22;1116;51.502;7.414;2023-05-10T15:01:05;19.20;10.50
2543;DHT22;1116;51.502;7.414;2023-05-10T15:03:36;19.30;11.50
2543;DHT22;1116;51.502;7.414;2023-05-10T15:06:08;19.30;11.40
2543;DHT22;1116;51.502;7.414;2023-05-10T15:08:39;19.20;13.50
2543;DHT22;1116;51.502;7.414;2023-05-10T15:11:11;19.30;11.80
2543;DHT22;1116;51.502;7.414;2023-05-10T15:13:44;19.50;11.90
2543;DHT22;1116;51.502;7.414;2023-05-10T15:16:15;19.70;12.10
2543;DHT22;1116;51.502;7.414;2023-05-10T15:18:46;19.80;10.70
2543;DHT22;1116;51.502;7.414;2023-05-10T15:21:17;19.80;8.20
2543;DHT22;1116;51.502;7.414;2023-05-10T15:23:48;19.80;7.40
2543;DHT22;1116;51.502;7.414;2023-05-10T15:26:19;19.80;10.50
2543;DHT22;1116;51.502;7.414;2023-05-10T15:28:52;19.90;11.80
2543;DHT22;1116;51.502;7.414;2023-05-10T15:31:23;19.90;7.60
2543;DHT22;1116;51.502;7.414;2023-05-10T15:33:57;20.00;9.50
2543;DHT22;1116;51.502;7.414;2023-05-10T15:36:31;20.00;8.40
2543;DHT22;1116;51.502;7.414;2023-05-10T15:39:02;20.00;7.80
2543;DHT22;1116;51.502;7.414;2023-05-10T15:41:33;20.00;6.70
2543;DHT22;1116;51.502;7.414;2023-05-10T15:44:07;19.80;7.40
2543;DHT22;1116;51.502;7.414;2023-05-10T15:46:39;19.80;6.50
2543;DHT22;1116;51.502;7.414;2023-05-10T15:49:10;19.70;8.50
2543;DHT22;1116;51.502;7.414;2023-05-10T15:51:41;19.60;8.20
2543;DHT22;1116;51.502;7.414;2023-05-10T15:54:14;19.60;8.90
2543;DHT22;1116;51.502;7.414;2023-05-10T15:56:45;19.40;9.30
2543;DHT22;1116;51.502;7.414;2023-05-10T15:59:19;19.50;9.90
2543;DHT22;1116;51.502;7.414;2023-05-10T16:01:50;19.50;9.40
2543;DHT22;1116;51.502;7.414;2023-05-10T16:04:22;19.40;11.90
2543;DHT22;1116;51.502;7.414;2023-05-10T16:06:53;19.40;8.70
2543;DHT22;1116;51.502;7.414;2023-05-10T16:09:24;19.30;9.10
2543;DHT22;1116;51.502;7.414;2023-05-10T16:11:55;19.20;10.30
2543;DHT22;1116;51.502;7.414;2023-05-10T16:14:29;19.10;8.50
2543;DHT22;1116;51.502;7.414;2023-05-10T16:16:59;19.10;11.10
2543;DHT22;1116;51.502;7.414;2023-05-10T16:19:31;19.00;11.60
2543;DHT22;1116;51.502;7.414;2023-05-10T16:22:02;19.10;11.80
2543;DHT22;1116;51.502;7.414;2023-05-10T16:24:33;19.10;13.20
2543;DHT22;1116;51.502;7.414;2023-05-10T16:27:04;19.10;13.50
2543;DHT22;1116;51.502;7.414;2023-05-10T16:29:37;18.90;11.60
2543;DHT22;1116;51.502;7.414;2023-05-10T16:32:09;18.90;12.50
2543;DHT22;1116;51.502;7.414;2023-05-10T16:34:40;18.90;13.40
2543;DHT22;1116;51.502;7.414;2023-05-10T16:37:10;18.80;14.70
2543;DHT22;1116;51.502;7.414;2023-05-10T16:39:41;18.80;14.50
2543;DHT22;1116;51.502;7.414;2023-05-10T16:42:12;18.70;14.70
2543;DHT22;1116;51.502;7.414;2023-05-10T16:44:47;18.70;14.20
2543;DHT22;1116;51.502;7.414;2023-05-10T16:47:18;18.60;13.80
2543;DHT22;1116;51.502;7.414;2023-05-10T16:49:50;18.50;15.10
2543;DHT22;1116;51.502;7.414;2023-05-10T16:52:21;18.50;13.90
2543;DHT22;1116;51.502;7.414;2023-05-10T16:54:53;18.40;14.90
2543;DHT22;1116;51.502;7.414;2023-05-10T16:57:24;18.30;16.00
2543;DHT22;1116;51.502;7.414;2023-05-10T16:59:57;18.30;15.50